首页
METAR-TAF:

METAR-TAF

机场 :

卡萊爾, 英格兰

纬度: 54-56-15N, 经度: 002-48-33W, 海拔: 57米

当前天气观测

该预报发布于11小时和6分钟前的17:50 UTC
风速5节,风向西转西南
温度 7°C
湿度 100%
气压 1019 hPa
能見度: 6000
少量云层高于300英尺
多云层高于500英尺

METAR: EGNC 241750Z 25005KT 6000 FEW003 BKN005 07/07 Q1019

时间: 04:56 (04:56 UTC)

预报

该预报发布于14小时和54分钟前的14:02 UTC
预报有效从24日的 15点(UTC)到 24日的 18点(UTC)
风速7节,风向西转西南
能见度10公里或以上
多云层高于700英尺
短暂存在
从 24日的 15点(UTC)到 24日的 18点(UTC)
能見度: 4000
多云层高于400英尺
小毛毛雨, 轻雾

TAF: EGNC 241402Z 2415/2418 24007KT 9999 BKN007 TEMPO 2415/2418 4000 -DZ BR BKN004

超过4000个机场的气象观测和天气预报(METAR&TAF报告)。

可查询的气象台以黄色和红色小点在地图上表示。

将鼠标移到小点上方,可查看气象台名称。

然后点击查看天气观测和预报。

如需切换地图:点击带黑十字的绿色按钮放大地图;点击带横线的绿色按钮缩小地图;或者点击绿色箭头查看邻近地区的地图。


METAR-TAF: